createdAt,value
2023-05-06T00:00:33.222Z,7.60
2023-05-06T00:01:33.189Z,7.80
2023-05-06T00:02:33.313Z,7.60
2023-05-06T00:03:33.397Z,7.70
2023-05-06T00:04:33.272Z,7.80
2023-05-06T00:05:33.143Z,7.00
2023-05-06T00:06:33.136Z,7.50
2023-05-06T00:07:33.135Z,7.50
2023-05-06T00:08:33.128Z,8.20
2023-05-06T00:09:33.121Z,7.80
2023-05-06T00:10:33.067Z,7.20
2023-05-06T00:11:33.133Z,7.10
2023-05-06T00:12:33.042Z,7.30
2023-05-06T00:13:33.030Z,7.50
2023-05-06T00:14:33.061Z,7.20
2023-05-06T00:15:32.999Z,8.30
2023-05-06T00:16:33.093Z,7.70
2023-05-06T00:17:33.015Z,7.90
2023-05-06T00:18:32.957Z,7.90
2023-05-06T00:19:32.969Z,8.00
2023-05-06T00:20:32.970Z,8.20
2023-05-06T00:21:32.941Z,8.30
2023-05-06T00:22:32.924Z,7.60
2023-05-06T00:23:32.899Z,7.90
2023-05-06T00:24:32.903Z,8.60
2023-05-06T00:25:32.881Z,7.80
2023-05-06T00:26:32.863Z,7.60
2023-05-06T00:27:32.863Z,7.10
2023-05-06T00:28:32.833Z,7.20
2023-05-06T00:29:32.818Z,7.40
2023-05-06T00:30:32.816Z,8.00
2023-05-06T00:31:32.877Z,8.00
2023-05-06T00:32:32.825Z,7.50
2023-05-06T00:33:32.760Z,7.90
2023-05-06T00:34:32.750Z,7.10
2023-05-06T00:35:32.759Z,8.50
2023-05-06T00:36:32.742Z,9.40
2023-05-06T00:37:32.728Z,8.80
2023-05-06T00:38:32.709Z,8.30
2023-05-06T00:39:32.712Z,8.60
2023-05-06T00:40:32.705Z,7.90
2023-05-06T00:41:32.663Z,7.90
2023-05-06T00:42:32.663Z,9.20
2023-05-06T00:43:32.656Z,8.40
2023-05-06T00:44:32.627Z,8.00
2023-05-06T00:45:32.671Z,8.80
2023-05-06T00:46:32.590Z,7.60
2023-05-06T00:47:32.652Z,7.90
2023-05-06T00:48:32.609Z,8.00
2023-05-06T00:49:32.580Z,7.40
2023-05-06T00:50:32.570Z,8.30
2023-05-06T00:51:32.549Z,7.80
2023-05-06T00:52:32.533Z,7.90
2023-05-06T00:53:32.544Z,7.80
2023-05-06T00:54:32.507Z,7.90
2023-05-06T00:55:32.498Z,8.20
2023-05-06T00:56:32.478Z,8.90
2023-05-06T00:57:32.482Z,8.80
2023-05-06T00:58:32.453Z,6.80
2023-05-06T00:59:32.423Z,8.50
2023-05-06T01:00:32.427Z,8.60
2023-05-06T01:01:32.419Z,8.30
2023-05-06T01:02:45.792Z,8.60
2023-05-06T01:03:32.467Z,8.50
2023-05-06T01:04:32.440Z,7.80
2023-05-06T01:05:32.344Z,8.60
2023-05-06T01:06:32.350Z,8.70
2023-05-06T01:07:32.338Z,8.20
2023-05-06T01:08:32.313Z,8.60
2023-05-06T01:09:32.331Z,9.00
2023-05-06T01:10:32.269Z,8.50
2023-05-06T01:11:32.281Z,9.40
2023-05-06T01:12:32.327Z,8.70
2023-05-06T01:13:32.256Z,8.80
2023-05-06T01:14:32.246Z,8.90
2023-05-06T01:15:32.235Z,9.40
2023-05-06T01:16:32.296Z,9.80
2023-05-06T01:17:32.217Z,10.30
2023-05-06T01:18:32.193Z,9.30
2023-05-06T01:19:32.177Z,9.10
2023-05-06T01:20:32.164Z,9.20
2023-05-06T01:21:32.176Z,9.40
2023-05-06T01:22:32.137Z,9.60
2023-05-06T01:23:32.155Z,8.90
2023-05-06T01:24:32.107Z,8.90
2023-05-06T01:25:32.103Z,8.90
2023-05-06T01:26:32.088Z,8.60
2023-05-06T01:27:32.150Z,8.30
2023-05-06T01:28:32.050Z,9.20
2023-05-06T01:29:32.049Z,9.00
2023-05-06T01:30:32.044Z,8.70
2023-05-06T01:31:32.124Z,9.30
2023-05-06T01:32:32.024Z,9.20
2023-05-06T01:33:32.004Z,8.80
2023-05-06T01:34:31.956Z,8.30
2023-05-06T01:35:31.977Z,8.60
2023-05-06T01:36:31.960Z,9.80
2023-05-06T01:37:31.946Z,9.80
2023-05-06T01:38:31.917Z,9.70
2023-05-06T01:39:31.906Z,9.50
2023-05-06T01:40:31.888Z,9.30
2023-05-06T01:41:31.903Z,9.00
2023-05-06T01:42:31.863Z,9.60
2023-05-06T01:43:31.890Z,9.00
2023-05-06T01:44:31.832Z,9.70
2023-05-06T01:45:31.820Z,9.50
2023-05-06T01:46:31.867Z,9.50
2023-05-06T01:47:31.838Z,9.50
2023-05-06T01:48:31.782Z,9.20
2023-05-06T01:49:31.805Z,8.80
2023-05-06T01:50:31.759Z,8.20
2023-05-06T01:51:31.740Z,8.80
2023-05-06T01:52:31.732Z,9.50
2023-05-06T01:53:31.749Z,9.30
2023-05-06T01:54:31.698Z,8.70
2023-05-06T01:55:31.716Z,8.40
2023-05-06T01:56:31.728Z,9.70
2023-05-06T01:57:31.673Z,8.80
2023-05-06T01:58:31.686Z,8.20
2023-05-06T01:59:31.663Z,9.20
2023-05-06T02:00:31.646Z,9.50
2023-05-06T02:01:31.644Z,9.00
2023-05-06T02:02:31.677Z,9.20
2023-05-06T02:03:31.653Z,8.90
2023-05-06T02:04:31.585Z,9.10
2023-05-06T02:05:31.568Z,9.40
2023-05-06T02:06:31.558Z,10.40
2023-05-06T02:07:31.551Z,8.90
2023-05-06T02:08:31.540Z,9.40
2023-05-06T02:09:31.531Z,10.60
2023-05-06T02:10:31.531Z,9.90
2023-05-06T02:11:31.477Z,10.40
2023-05-06T02:12:31.508Z,9.90
2023-05-06T02:13:31.451Z,9.50
2023-05-06T02:14:31.435Z,9.30
2023-05-06T02:15:31.454Z,10.10
2023-05-06T02:16:31.474Z,10.00
2023-05-06T02:17:31.428Z,10.20
2023-05-06T02:18:31.396Z,9.40
2023-05-06T02:19:31.369Z,9.50
2023-05-06T02:20:31.373Z,10.20
2023-05-06T02:21:31.362Z,9.50
2023-05-06T02:22:31.381Z,10.90
2023-05-06T02:23:31.373Z,9.40
2023-05-06T02:24:31.301Z,9.90
2023-05-06T02:25:31.322Z,9.90
2023-05-06T02:26:31.525Z,8.70
2023-05-06T02:27:31.282Z,9.50
2023-05-06T02:28:31.242Z,9.40
2023-05-06T02:29:31.283Z,10.10
2023-05-06T02:30:31.244Z,8.40
2023-05-06T02:31:31.287Z,9.00
2023-05-06T02:32:31.231Z,9.70
2023-05-06T02:33:31.217Z,9.80
2023-05-06T02:34:31.164Z,9.10
2023-05-06T02:35:31.173Z,10.30
2023-05-06T02:36:31.156Z,10.50
2023-05-06T02:37:31.152Z,9.80
2023-05-06T02:38:31.155Z,9.60
2023-05-06T02:39:31.119Z,9.90
2023-05-06T02:40:31.096Z,10.40
2023-05-06T02:41:31.127Z,11.30
2023-05-06T02:42:31.110Z,10.50
2023-05-06T02:43:31.081Z,10.00
2023-05-06T02:44:31.026Z,10.00
2023-05-06T02:45:31.086Z,10.10
2023-05-06T02:46:31.022Z,10.40
2023-05-06T02:47:31.104Z,10.30
2023-05-06T02:48:31.007Z,9.50
2023-05-06T02:49:30.983Z,10.50
2023-05-06T02:50:30.975Z,10.40
2023-05-06T02:51:30.978Z,11.10
2023-05-06T02:52:30.948Z,11.20
2023-05-06T02:53:30.946Z,10.60
2023-05-06T02:54:30.941Z,10.30
2023-05-06T02:55:30.940Z,10.10
2023-05-06T02:56:30.897Z,10.70
2023-05-06T02:57:30.881Z,10.80
2023-05-06T02:58:30.856Z,10.70
2023-05-06T02:59:30.842Z,10.30
2023-05-06T03:00:30.836Z,10.70
2023-05-06T03:01:30.863Z,9.90
2023-05-06T03:02:30.839Z,11.50
2023-05-06T03:03:30.793Z,10.50
2023-05-06T03:04:30.880Z,10.40
2023-05-06T03:05:30.788Z,10.80
2023-05-06T03:06:30.736Z,11.40
2023-05-06T03:07:30.767Z,11.60
2023-05-06T03:08:30.734Z,12.30
2023-05-06T03:09:30.714Z,11.80
2023-05-06T03:10:30.710Z,10.70
2023-05-06T03:11:30.684Z,10.60
2023-05-06T03:12:30.666Z,10.90
2023-05-06T03:13:30.706Z,10.90
2023-05-06T03:14:30.637Z,11.10
2023-05-06T03:15:30.675Z,11.30
2023-05-06T03:16:30.651Z,11.30
2023-05-06T03:17:30.702Z,11.80
2023-05-06T03:18:30.609Z,11.50
2023-05-06T03:19:30.596Z,12.00
2023-05-06T03:20:30.591Z,10.80
2023-05-06T03:21:30.623Z,11.80
2023-05-06T03:22:30.537Z,11.80
2023-05-06T03:23:30.532Z,11.10
2023-05-06T03:24:30.515Z,10.80
2023-05-06T03:25:30.533Z,11.20
2023-05-06T03:26:30.489Z,10.70
2023-05-06T03:27:30.470Z,10.20
2023-05-06T03:28:30.454Z,10.40
2023-05-06T03:29:30.447Z,11.00
2023-05-06T03:30:30.486Z,11.10
2023-05-06T03:31:30.530Z,10.80
2023-05-06T03:32:30.444Z,11.60
2023-05-06T03:33:30.462Z,11.30
2023-05-06T03:34:30.368Z,10.20
2023-05-06T03:35:30.397Z,10.70
2023-05-06T03:36:30.379Z,10.20
2023-05-06T03:37:30.373Z,11.00
2023-05-06T03:38:30.346Z,10.60
2023-05-06T03:39:30.318Z,11.10
2023-05-06T03:40:30.326Z,10.20
2023-05-06T03:41:30.318Z,10.80
2023-05-06T03:42:30.301Z,10.70
2023-05-06T03:43:30.284Z,10.90
2023-05-06T03:44:30.390Z,10.70
2023-05-06T03:45:30.272Z,11.30
2023-05-06T03:46:30.413Z,10.80
2023-05-06T03:47:30.371Z,10.60
2023-05-06T03:48:30.220Z,10.60
2023-05-06T03:49:30.248Z,10.10
2023-05-06T03:50:30.165Z,10.30
2023-05-06T03:51:30.161Z,11.10
2023-05-06T03:52:30.141Z,10.50
2023-05-06T03:53:30.154Z,10.70
2023-05-06T03:54:30.125Z,11.80
2023-05-06T03:55:30.141Z,10.40
2023-05-06T03:56:30.124Z,10.20
2023-05-06T03:57:30.117Z,11.20
2023-05-06T03:58:30.058Z,10.60
2023-05-06T03:59:30.139Z,10.20
2023-05-06T04:00:30.051Z,11.40
2023-05-06T04:01:30.074Z,11.50
2023-05-06T04:02:30.217Z,11.00
2023-05-06T04:03:30.063Z,11.60
2023-05-06T04:04:30.003Z,12.20
2023-05-06T04:05:29.982Z,13.80
2023-05-06T04:06:29.955Z,13.60
2023-05-06T04:07:29.944Z,14.70
2023-05-06T04:08:29.968Z,14.70
2023-05-06T04:09:29.925Z,15.10
2023-05-06T04:10:29.943Z,15.60
2023-05-06T04:11:30.026Z,12.30
2023-05-06T04:12:29.916Z,12.50
2023-05-06T04:13:29.881Z,13.40
2023-05-06T04:14:29.873Z,12.20
2023-05-06T04:15:29.886Z,13.00
2023-05-06T04:16:29.852Z,11.90
2023-05-06T04:17:29.877Z,11.30
2023-05-06T04:18:29.809Z,12.30
2023-05-06T04:19:29.785Z,12.40
2023-05-06T04:20:29.789Z,11.30
2023-05-06T04:21:29.785Z,12.10
2023-05-06T04:22:29.749Z,11.80
2023-05-06T04:23:29.766Z,11.60
2023-05-06T04:24:29.727Z,11.00
2023-05-06T04:25:29.726Z,11.30
2023-05-06T04:26:29.715Z,10.90
2023-05-06T04:27:29.689Z,12.40
2023-05-06T04:28:29.702Z,12.60
2023-05-06T04:29:29.660Z,12.20
2023-05-06T04:30:29.676Z,11.50
2023-05-06T04:31:29.742Z,11.00
2023-05-06T04:32:29.787Z,10.30
2023-05-06T04:33:29.624Z,11.20
2023-05-06T04:34:29.595Z,10.40
2023-05-06T04:35:29.578Z,10.10
2023-05-06T04:36:29.620Z,10.00
2023-05-06T04:37:29.589Z,10.10
2023-05-06T04:38:29.598Z,10.00
2023-05-06T04:39:29.547Z,10.40
2023-05-06T04:40:29.516Z,10.00
2023-05-06T04:41:29.535Z,9.80
2023-05-06T04:42:29.522Z,10.60
2023-05-06T04:43:29.522Z,9.10
2023-05-06T04:44:29.499Z,9.90
2023-05-06T04:45:29.474Z,10.10
2023-05-06T04:46:29.438Z,9.60
2023-05-06T04:47:29.460Z,9.20
2023-05-06T04:48:29.460Z,9.90
2023-05-06T04:49:29.427Z,10.20
2023-05-06T04:50:29.422Z,10.40
2023-05-06T04:51:29.408Z,10.10
2023-05-06T04:52:29.376Z,10.80
2023-05-06T04:53:29.370Z,10.50
2023-05-06T04:54:29.366Z,10.90
2023-05-06T04:55:29.321Z,11.40
2023-05-06T04:56:29.326Z,12.10
2023-05-06T04:57:29.299Z,10.40
2023-05-06T04:58:29.313Z,10.00
2023-05-06T04:59:29.303Z,9.90
2023-05-06T05:00:29.271Z,9.40
2023-05-06T05:01:29.331Z,9.30
2023-05-06T05:02:29.372Z,10.20
2023-05-06T05:03:29.319Z,9.90
2023-05-06T05:04:29.216Z,9.80
2023-05-06T05:05:29.228Z,9.40
2023-05-06T05:06:29.195Z,9.40
2023-05-06T05:07:29.181Z,9.60
2023-05-06T05:08:29.161Z,8.90
2023-05-06T05:09:29.169Z,9.70
2023-05-06T05:10:29.175Z,10.00
2023-05-06T05:11:29.104Z,9.50
2023-05-06T05:12:29.109Z,9.70
2023-05-06T05:13:29.087Z,10.50
2023-05-06T05:14:29.096Z,10.50
2023-05-06T05:15:29.104Z,10.20
2023-05-06T05:16:29.134Z,9.40
2023-05-06T05:17:29.099Z,9.50
2023-05-06T05:18:29.065Z,9.50
2023-05-06T05:19:29.007Z,10.70
2023-05-06T05:20:29.008Z,9.60
2023-05-06T05:21:28.975Z,9.10
2023-05-06T05:22:29.001Z,9.70
2023-05-06T05:23:28.966Z,10.10
2023-05-06T05:24:28.975Z,9.50
2023-05-06T05:25:28.946Z,10.00
2023-05-06T05:26:28.939Z,9.80
2023-05-06T05:27:28.901Z,9.60
2023-05-06T05:28:28.900Z,10.00
2023-05-06T05:29:28.871Z,9.50
2023-05-06T05:30:28.916Z,9.90
2023-05-06T05:31:28.940Z,9.00
2023-05-06T05:32:28.861Z,8.90
2023-05-06T05:33:28.881Z,8.70
2023-05-06T05:34:28.816Z,8.60
2023-05-06T05:35:28.795Z,9.80
2023-05-06T05:36:28.805Z,10.20
2023-05-06T05:37:28.760Z,9.60
2023-05-06T05:38:28.767Z,9.70
2023-05-06T05:39:28.740Z,9.20
2023-05-06T05:40:28.752Z,10.50
2023-05-06T05:41:28.751Z,9.90
2023-05-06T05:42:28.722Z,8.90
2023-05-06T05:43:28.693Z,10.00
2023-05-06T05:44:28.697Z,9.50
2023-05-06T05:45:28.667Z,11.90
2023-05-06T05:46:28.747Z,9.70
2023-05-06T05:47:28.699Z,11.10
2023-05-06T05:48:28.652Z,9.40
2023-05-06T05:49:28.599Z,9.80
2023-05-06T05:50:28.617Z,8.90
2023-05-06T05:51:28.609Z,9.20
2023-05-06T05:52:28.703Z,9.10
2023-05-06T05:53:28.654Z,8.90
2023-05-06T05:54:28.623Z,8.80
2023-05-06T05:55:28.542Z,8.60
2023-05-06T05:56:28.541Z,9.20
2023-05-06T05:57:28.511Z,9.40
2023-05-06T05:58:28.506Z,8.70
2023-05-06T05:59:28.499Z,8.60
2023-05-06T06:00:28.505Z,9.40
2023-05-06T06:01:28.574Z,8.80
2023-05-06T06:02:28.545Z,9.20
2023-05-06T06:03:28.538Z,8.60
2023-05-06T06:04:28.487Z,9.30
2023-05-06T06:05:28.416Z,8.20
2023-05-06T06:06:28.391Z,9.20
2023-05-06T06:07:28.380Z,9.10
2023-05-06T06:08:28.408Z,9.00
2023-05-06T06:09:28.395Z,9.30
2023-05-06T06:10:28.372Z,8.90
2023-05-06T06:11:28.327Z,8.70
2023-05-06T06:12:28.488Z,8.50
2023-05-06T06:13:28.942Z,9.20
2023-05-06T06:14:28.316Z,9.40
2023-05-06T06:15:28.300Z,9.80
2023-05-06T06:16:28.425Z,8.60
2023-05-06T06:17:28.272Z,8.70
2023-05-06T06:18:28.216Z,9.20
2023-05-06T06:19:28.244Z,9.70
2023-05-06T06:20:28.194Z,9.00
2023-05-06T06:21:28.185Z,8.30
2023-05-06T06:22:28.185Z,9.40
2023-05-06T06:23:28.195Z,9.20
2023-05-06T06:24:28.187Z,8.40
2023-05-06T06:25:28.166Z,9.60
2023-05-06T06:26:28.151Z,9.20
2023-05-06T06:27:28.111Z,8.40
2023-05-06T06:28:28.092Z,8.10
2023-05-06T06:29:28.153Z,9.00
2023-05-06T06:30:28.110Z,9.60
2023-05-06T06:31:28.147Z,9.40
2023-05-06T06:32:28.067Z,8.70
2023-05-06T06:33:28.027Z,9.00
2023-05-06T06:34:28.009Z,9.60
2023-05-06T06:35:28.066Z,8.60
2023-05-06T06:36:28.019Z,8.80
2023-05-06T06:37:27.993Z,9.30
2023-05-06T06:38:27.988Z,9.20
2023-05-06T06:39:28.024Z,8.50
2023-05-06T06:40:27.966Z,8.90
2023-05-06T06:41:27.949Z,9.50
2023-05-06T06:42:27.923Z,9.20
2023-05-06T06:43:27.922Z,9.30
2023-05-06T06:44:27.888Z,9.60
2023-05-06T06:45:27.877Z,9.20
2023-05-06T06:46:27.892Z,9.90
2023-05-06T06:47:27.927Z,9.20
2023-05-06T06:48:27.853Z,9.50
2023-05-06T06:49:27.837Z,9.00
2023-05-06T06:50:27.989Z,9.80
2023-05-06T06:51:28.055Z,9.50
2023-05-06T06:52:27.842Z,9.00
2023-05-06T06:53:28.164Z,9.20
2023-05-06T06:54:27.901Z,8.80
2023-05-06T06:55:27.740Z,9.40
2023-05-06T06:56:27.995Z,9.40
2023-05-06T06:57:27.983Z,10.00
2023-05-06T06:58:27.791Z,9.10
2023-05-06T06:59:27.951Z,8.70
2023-05-06T07:00:27.664Z,9.00
2023-05-06T07:01:27.747Z,9.40
2023-05-06T07:02:27.739Z,8.90
2023-05-06T07:03:27.646Z,9.50
2023-05-06T07:04:27.749Z,10.60
2023-05-06T07:05:27.645Z,9.60
2023-05-06T07:06:27.637Z,10.10
2023-05-06T07:07:27.593Z,13.70
2023-05-06T07:08:27.582Z,9.50
2023-05-06T07:09:27.569Z,8.80
2023-05-06T07:10:27.572Z,9.20
2023-05-06T07:11:27.514Z,10.10
2023-05-06T07:12:27.513Z,9.00
2023-05-06T07:13:27.510Z,9.70
2023-05-06T07:14:27.506Z,9.20
2023-05-06T07:15:27.505Z,10.40
2023-05-06T07:16:27.527Z,9.70
2023-05-06T07:17:27.476Z,10.10
2023-05-06T07:18:27.436Z,9.60
2023-05-06T07:19:27.405Z,9.00
2023-05-06T07:20:27.480Z,10.20
2023-05-06T07:21:27.397Z,9.70
2023-05-06T07:22:27.405Z,9.60
2023-05-06T07:23:27.492Z,10.60
2023-05-06T07:24:27.360Z,9.30
2023-05-06T07:25:27.367Z,9.50
2023-05-06T07:26:27.354Z,9.80
2023-05-06T07:27:27.339Z,10.00
2023-05-06T07:28:27.351Z,9.80
2023-05-06T07:29:27.299Z,9.60
2023-05-06T07:30:27.363Z,9.30
2023-05-06T07:31:27.272Z,9.40
2023-05-06T07:32:27.273Z,10.20
2023-05-06T07:33:27.236Z,10.30
2023-05-06T07:34:27.231Z,9.60
2023-05-06T07:35:27.220Z,10.10
2023-05-06T07:36:27.244Z,10.00
2023-05-06T07:37:27.180Z,9.90
2023-05-06T07:38:27.211Z,9.50
2023-05-06T07:39:27.143Z,10.20
2023-05-06T07:40:27.128Z,10.30
2023-05-06T07:41:27.143Z,10.10
2023-05-06T07:42:27.125Z,9.30
2023-05-06T07:43:27.121Z,10.40
2023-05-06T07:44:27.096Z,9.80
2023-05-06T07:45:27.105Z,10.30
2023-05-06T07:46:27.175Z,10.10
2023-05-06T07:47:27.171Z,11.40
2023-05-06T07:48:27.117Z,10.90
2023-05-06T07:49:27.032Z,11.40
2023-05-06T07:50:27.002Z,10.80
2023-05-06T07:51:26.987Z,10.40
2023-05-06T07:52:26.995Z,10.20
2023-05-06T07:53:26.992Z,10.70
2023-05-06T07:54:26.963Z,11.20
2023-05-06T07:55:26.955Z,11.10
2023-05-06T07:56:26.949Z,11.80
2023-05-06T07:57:26.929Z,11.10
2023-05-06T07:58:26.994Z,11.80
2023-05-06T07:59:26.918Z,11.50
2023-05-06T08:00:26.883Z,10.60
2023-05-06T08:01:26.866Z,12.20
2023-05-06T08:02:26.988Z,12.10
2023-05-06T08:03:27.024Z,11.00
2023-05-06T08:04:26.899Z,11.70
2023-05-06T08:05:26.812Z,11.60
2023-05-06T08:06:26.798Z,11.20
2023-05-06T08:07:26.796Z,12.30
2023-05-06T08:08:26.798Z,13.10
2023-05-06T08:09:26.767Z,14.50
2023-05-06T08:10:26.770Z,13.10
2023-05-06T08:11:26.755Z,13.20
2023-05-06T08:12:26.724Z,12.20
2023-05-06T08:13:26.739Z,12.60
2023-05-06T08:14:26.727Z,12.00
2023-05-06T08:15:26.707Z,12.00
2023-05-06T08:16:26.749Z,13.40
2023-05-06T08:17:26.692Z,13.70
2023-05-06T08:18:26.748Z,13.30
2023-05-06T08:19:26.689Z,13.40
2023-05-06T08:20:26.612Z,12.90
2023-05-06T08:21:26.596Z,13.40
2023-05-06T08:22:26.598Z,13.80
2023-05-06T08:23:26.607Z,14.00
2023-05-06T08:24:26.563Z,13.60
2023-05-06T08:25:26.541Z,13.40
2023-05-06T08:26:26.573Z,13.00
2023-05-06T08:27:26.549Z,13.70
2023-05-06T08:28:26.546Z,14.30
2023-05-06T08:29:26.526Z,14.60
2023-05-06T08:30:26.466Z,13.00
2023-05-06T08:31:26.486Z,13.30
2023-05-06T08:32:26.633Z,13.30
2023-05-06T08:33:26.502Z,12.90
2023-05-06T08:34:26.436Z,12.90
2023-05-06T08:35:26.411Z,13.10
2023-05-06T08:36:26.401Z,13.60
2023-05-06T08:37:26.408Z,14.40
2023-05-06T08:38:26.394Z,12.80
2023-05-06T08:39:26.417Z,13.00
2023-05-06T08:40:26.362Z,13.80
2023-05-06T08:41:26.347Z,12.80
2023-05-06T08:42:26.320Z,12.40
2023-05-06T08:43:26.311Z,13.60
2023-05-06T08:44:26.312Z,14.20
2023-05-06T08:45:28.045Z,13.80
2023-05-06T08:46:26.283Z,14.40
2023-05-06T08:47:26.307Z,13.70
2023-05-06T08:48:26.247Z,13.00
2023-05-06T08:49:26.253Z,13.30
2023-05-06T08:50:26.233Z,15.40
2023-05-06T08:51:26.230Z,14.10
2023-05-06T08:52:26.225Z,13.40
2023-05-06T08:53:26.213Z,13.90
2023-05-06T08:54:26.191Z,14.20
2023-05-06T08:55:26.162Z,14.10
2023-05-06T08:56:26.141Z,13.50
2023-05-06T08:57:26.150Z,12.60
2023-05-06T08:58:26.121Z,13.00
2023-05-06T08:59:26.144Z,13.50
2023-05-06T09:00:26.103Z,13.30
2023-05-06T09:01:26.094Z,13.90
2023-05-06T09:02:26.233Z,13.90
2023-05-06T09:03:26.106Z,13.80
2023-05-06T09:04:26.117Z,13.20
2023-05-06T09:05:26.071Z,12.50
2023-05-06T09:06:25.991Z,12.10
2023-05-06T09:07:26.021Z,12.60
2023-05-06T09:08:26.008Z,12.50
2023-05-06T09:09:26.099Z,12.70
2023-05-06T09:10:25.971Z,11.90
2023-05-06T09:11:25.947Z,11.20
2023-05-06T09:12:25.999Z,13.10
2023-05-06T09:13:25.922Z,14.30
2023-05-06T09:14:25.884Z,12.30
2023-05-06T09:15:25.923Z,12.80
2023-05-06T09:16:26.005Z,11.50
2023-05-06T09:17:25.903Z,11.30
2023-05-06T09:18:25.898Z,10.80
2023-05-06T09:19:25.904Z,10.80
2023-05-06T09:20:26.094Z,10.60
2023-05-06T09:21:25.863Z,11.80
2023-05-06T09:22:25.785Z,10.60
2023-05-06T09:23:25.889Z,10.00
2023-05-06T09:24:25.781Z,12.20
2023-05-06T09:25:25.751Z,10.80
2023-05-06T09:26:25.735Z,10.70
2023-05-06T09:27:25.804Z,10.80
2023-05-06T09:28:25.782Z,10.60
2023-05-06T09:29:25.701Z,10.90
2023-05-06T09:30:25.681Z,9.50
2023-05-06T09:31:25.810Z,9.80
2023-05-06T09:32:25.743Z,8.90
2023-05-06T09:33:25.685Z,9.90
2023-05-06T09:34:25.649Z,8.30
2023-05-06T09:35:25.637Z,8.90
2023-05-06T09:36:25.615Z,8.60
2023-05-06T09:37:25.631Z,8.60
2023-05-06T09:38:25.586Z,8.10
2023-05-06T09:39:25.573Z,8.20
2023-05-06T09:40:25.559Z,7.90
2023-05-06T09:41:25.707Z,7.60
2023-05-06T09:42:25.573Z,8.00
2023-05-06T09:43:25.535Z,8.10
2023-05-06T09:44:25.491Z,8.50
2023-05-06T09:45:25.501Z,8.20
2023-05-06T09:46:25.555Z,7.60
2023-05-06T09:47:25.539Z,8.30
2023-05-06T09:48:25.500Z,7.90
2023-05-06T09:49:25.447Z,7.80
2023-05-06T09:50:25.433Z,7.20
2023-05-06T09:51:25.409Z,7.30
2023-05-06T09:52:25.419Z,8.20
2023-05-06T09:53:25.512Z,7.10
2023-05-06T09:54:25.374Z,7.00
2023-05-06T09:55:25.433Z,7.30
2023-05-06T09:56:25.381Z,7.60
2023-05-06T09:57:25.343Z,7.60
2023-05-06T09:58:25.336Z,6.90
2023-05-06T09:59:25.349Z,7.00
2023-05-06T10:00:25.287Z,6.90
2023-05-06T10:01:36.228Z,6.80
2023-05-06T10:02:25.369Z,6.90
2023-05-06T10:03:25.439Z,6.40
2023-05-06T10:04:26.436Z,6.10
2023-05-06T10:05:25.568Z,7.20
2023-05-06T10:06:25.302Z,6.70
2023-05-06T10:07:25.219Z,7.60
2023-05-06T10:08:25.361Z,8.70
2023-05-06T10:09:25.556Z,10.20
2023-05-06T10:10:25.648Z,7.30
2023-05-06T10:11:25.282Z,6.10
2023-05-06T10:12:25.145Z,6.50
2023-05-06T10:13:25.194Z,7.20
2023-05-06T10:14:25.481Z,6.40
2023-05-06T10:15:25.391Z,6.90
2023-05-06T10:16:25.298Z,6.90
2023-05-06T10:17:25.251Z,7.10
2023-05-06T10:18:25.283Z,6.60
2023-05-06T10:19:25.713Z,6.70
2023-05-06T10:20:25.056Z,7.00
2023-05-06T10:21:25.062Z,6.60
2023-05-06T10:22:25.162Z,7.30
2023-05-06T10:23:25.001Z,7.30
2023-05-06T10:24:25.305Z,7.20
2023-05-06T10:25:25.051Z,6.90
2023-05-06T10:26:25.289Z,8.90
2023-05-06T10:27:25.085Z,7.50
2023-05-06T10:28:30.400Z,6.60
2023-05-06T10:29:24.915Z,6.60
2023-05-06T10:30:24.894Z,6.20
2023-05-06T10:31:25.226Z,7.10
2023-05-06T10:32:25.046Z,5.90
2023-05-06T10:33:24.936Z,5.70
2023-05-06T10:34:24.849Z,6.20
2023-05-06T10:35:24.963Z,6.20
2023-05-06T10:36:24.898Z,7.70
2023-05-06T10:37:24.990Z,5.70
2023-05-06T10:38:24.953Z,6.30
2023-05-06T10:39:25.095Z,5.60
2023-05-06T10:40:24.783Z,6.70
2023-05-06T10:41:24.885Z,6.00
2023-05-06T10:42:24.755Z,6.50
2023-05-06T10:43:24.756Z,6.50
2023-05-06T10:44:25.007Z,6.00
2023-05-06T10:45:24.743Z,5.80
2023-05-06T10:46:24.781Z,7.40
2023-05-06T10:47:24.729Z,6.60
2023-05-06T10:48:24.712Z,6.00
2023-05-06T10:49:24.809Z,7.40
2023-05-06T10:50:24.896Z,6.20
2023-05-06T10:51:24.633Z,5.80
2023-05-06T10:52:24.620Z,5.90
2023-05-06T10:53:24.616Z,5.20
2023-05-06T10:54:24.583Z,9.40
2023-05-06T10:55:24.582Z,7.40
2023-05-06T10:56:24.559Z,5.90
2023-05-06T10:57:24.552Z,5.30
2023-05-06T10:58:24.545Z,12.30
2023-05-06T10:59:24.516Z,10.50
2023-05-06T11:00:24.505Z,4.70
2023-05-06T11:01:24.503Z,4.90
2023-05-06T11:02:24.541Z,4.60
2023-05-06T11:03:24.519Z,17.20
2023-05-06T11:04:24.466Z,9.20
2023-05-06T11:05:24.452Z,5.60
2023-05-06T11:06:24.461Z,4.10
2023-05-06T11:07:24.453Z,4.80
2023-05-06T11:08:24.411Z,4.60
2023-05-06T11:09:24.386Z,5.40
2023-05-06T11:10:24.359Z,6.80
2023-05-06T11:11:24.381Z,5.40
2023-05-06T11:12:24.329Z,5.20
2023-05-06T11:13:24.372Z,4.20
2023-05-06T11:14:24.313Z,4.20
2023-05-06T11:15:24.319Z,4.10
2023-05-06T11:16:24.341Z,3.50
2023-05-06T11:17:24.339Z,4.20
2023-05-06T11:18:24.255Z,7.90
2023-05-06T11:19:24.334Z,4.50
2023-05-06T11:20:24.263Z,5.60
2023-05-06T11:21:24.230Z,4.60
2023-05-06T11:22:24.218Z,3.70
2023-05-06T11:23:24.199Z,3.40
2023-05-06T11:24:24.229Z,3.70
2023-05-06T11:25:24.189Z,3.10
2023-05-06T11:26:24.188Z,3.70
2023-05-06T11:27:24.149Z,4.10
2023-05-06T11:28:24.134Z,3.50
2023-05-06T11:29:24.121Z,3.80
2023-05-06T11:30:24.141Z,3.20
2023-05-06T11:31:24.171Z,4.20
2023-05-06T11:32:24.098Z,3.70
2023-05-06T11:33:24.095Z,2.90
2023-05-06T11:34:24.073Z,2.90
2023-05-06T11:35:24.106Z,3.00
2023-05-06T11:36:24.247Z,2.30
2023-05-06T11:37:24.063Z,2.90
2023-05-06T11:38:24.037Z,3.20
2023-05-06T11:39:23.985Z,3.00
2023-05-06T11:40:23.981Z,3.30
2023-05-06T11:41:24.076Z,4.70
2023-05-06T11:42:23.935Z,5.50
2023-05-06T11:43:23.965Z,2.90
2023-05-06T11:44:23.951Z,3.00
2023-05-06T11:45:23.918Z,2.60
2023-05-06T11:46:23.960Z,2.90
2023-05-06T11:47:23.958Z,2.90
2023-05-06T11:48:23.900Z,2.40
2023-05-06T11:49:23.865Z,2.40
2023-05-06T11:50:23.861Z,2.10
2023-05-06T11:51:23.828Z,2.40
2023-05-06T11:52:23.825Z,2.60
2023-05-06T11:53:23.811Z,2.40
2023-05-06T11:54:23.831Z,2.30
2023-05-06T11:55:23.817Z,3.10
2023-05-06T11:56:23.777Z,3.20
2023-05-06T11:57:23.780Z,2.80
2023-05-06T11:58:23.765Z,8.70
2023-05-06T11:59:23.744Z,3.50
2023-05-06T12:00:23.702Z,4.10
2023-05-06T12:01:23.744Z,4.40
2023-05-06T12:02:23.738Z,3.50
2023-05-06T12:03:23.880Z,3.10
2023-05-06T12:04:23.693Z,3.10
2023-05-06T12:05:23.643Z,3.10
2023-05-06T12:06:24.634Z,3.30
2023-05-06T12:07:23.613Z,2.90
2023-05-06T12:08:27.228Z,2.80
2023-05-06T12:09:23.699Z,3.20
2023-05-06T12:10:23.567Z,2.80
2023-05-06T12:11:23.562Z,3.50
2023-05-06T12:12:23.564Z,3.00
2023-05-06T12:13:23.619Z,3.10
2023-05-06T12:14:23.550Z,3.00
2023-05-06T12:15:23.543Z,2.70
2023-05-06T12:16:23.571Z,3.40
2023-05-06T12:17:23.531Z,3.90
2023-05-06T12:18:23.490Z,3.50
2023-05-06T12:19:23.469Z,3.20
2023-05-06T12:20:23.443Z,3.00
2023-05-06T12:21:23.488Z,2.60
2023-05-06T12:22:23.413Z,3.40
2023-05-06T12:23:23.433Z,3.10
2023-05-06T12:24:23.394Z,2.80
2023-05-06T12:25:23.420Z,2.60
2023-05-06T12:26:23.351Z,3.00
2023-05-06T12:27:23.348Z,2.90
2023-05-06T12:28:23.351Z,3.50
2023-05-06T12:29:23.335Z,3.60
2023-05-06T12:30:23.316Z,3.50
2023-05-06T12:31:23.417Z,3.30
2023-05-06T12:32:23.352Z,3.00
2023-05-06T12:33:23.308Z,3.00
2023-05-06T12:34:23.264Z,3.20
2023-05-06T12:35:23.258Z,3.20
2023-05-06T12:36:23.233Z,3.30
2023-05-06T12:37:23.264Z,2.90
2023-05-06T12:38:23.229Z,3.60
2023-05-06T12:39:23.189Z,3.30
2023-05-06T12:40:23.212Z,3.60
2023-05-06T12:41:23.201Z,3.00
2023-05-06T12:42:23.195Z,3.30
2023-05-06T12:43:23.171Z,3.40
2023-05-06T12:44:23.143Z,3.10
2023-05-06T12:45:23.125Z,3.20
2023-05-06T12:46:23.165Z,3.50
2023-05-06T12:47:23.130Z,3.40
2023-05-06T12:48:23.074Z,3.40
2023-05-06T12:49:23.081Z,3.60
2023-05-06T12:50:23.107Z,3.60
2023-05-06T12:51:23.053Z,3.20
2023-05-06T12:52:23.079Z,3.60
2023-05-06T12:53:23.015Z,3.70
2023-05-06T12:54:23.001Z,3.50
2023-05-06T12:55:23.016Z,3.50
2023-05-06T12:56:23.069Z,3.10
2023-05-06T12:57:22.990Z,2.90
2023-05-06T12:58:23.061Z,3.30
2023-05-06T12:59:22.956Z,3.80
2023-05-06T13:00:30.563Z,3.10
2023-05-06T13:01:23.222Z,3.80
2023-05-06T13:02:29.032Z,3.50
2023-05-06T13:03:22.981Z,3.60
2023-05-06T13:04:22.910Z,3.60
2023-05-06T13:05:22.851Z,4.40
2023-05-06T13:06:24.313Z,3.60
2023-05-06T13:07:22.847Z,3.10
2023-05-06T13:08:22.829Z,3.90
2023-05-06T13:09:22.818Z,4.10